Terminal Aerodrome Forecast
Issued by NWS

Home | Current Version | Previous Version | Text Only | Print | Product List | Glossary On
Versions: 1 2 3 4 5 6 7 8 9 10 11 12 13 14
000
FTUS43 KDVN 202341
TAFBRL
TAF
KBRL 202341Z 2100/2124 VRB04KT P6SM SCT060 BKN250
     FM210700 VRB03KT 4SM BR SCT120
     FM211200 VRB03KT 5SM -SHRA BR VCTS BKN050CB
     FM211600 15009KT P6SM BKN080
     FM211900 17013KT P6SM SCT040 BKN150=

USA.gov is the U.S. government's official web portal to all federal, state and local government web resources and services.